Nassau Point, New York
Current Conditions -  °F | °C
As of 12:53 PM on Thursday 27 Nov 2014 (Local Time) from KFOK Reporting Station
Overcast Overcast  
Wind Chill: 33°   Ceiling: 1700
Heat Index: 38°   Visibility: 10mi
Dew Point: 32°   Wind: 7mph
Humidity: 79%   Direction: 310°NW
Pressure: 29.97"   Gusts: NA
Location:  41.018°N, 72.4855°W
Report Text: KFOK 271753Z 31006KT 10SM OVC017 03/00 A2997 RMK AO2 RAE15 SLP147 P0000 60000 T00330000 10039 20022 58007
Loading
Personal Weather Stations






























Interactive Weather Map New forecast layout! Learn more

10-Day Weather Forecast

Advertisements
Track Severe Weather on mobile